NK25 weather

Cambria Airport
Lockport, New York, United States

Public forecast

Using degrees Fahrenheit for public forecast. Weather courtesy of forecast.io.

Closest aviation weather report (METAR) to Cambria Airport

Closest report is Niagara Falls International Airport, 8.9 nm (16.5 km) SW. Retrieved 2019/10/17 10:53 UTC (37 minutes ago):

KIAG 171053Z COR 31021G34KT 10SM OVC020 07/05 A2949

Closest aviation forecast (TAF) to Cambria Airport

Closest forecast is Niagara Falls International Airport, 8.9 nm (16.5 km) SW. Retrieved 2019/10/17 06:40 UTC (5 hours ago):

TAF KIAG 170537Z 1706/1806 28011G18KT P6SM VCSH OVC015 FM170900 30017G27KT P6SM VCSH OVC015 FM171200 30022G34KT 6SM -SHRA BR OVC020 FM171600 31020G32KT P6SM VCSH OVC025 FM172300 31019G30KT P6SM OVC025 FM180200 31017G24KT P6SM OVC020